sensor_id;sensor_type;location;lat;lon;timestamp;P1;durP1;ratioP1;P2;durP2;ratioP2
21955;SDS011;11142;49.930;8.606;2022-08-05T00:00:21;10.57;;;2.90;;
21955;SDS011;11142;49.930;8.606;2022-08-05T00:02:51;5.63;;;2.45;;
21955;SDS011;11142;49.930;8.606;2022-08-05T00:05:19;6.10;;;3.00;;
21955;SDS011;11142;49.930;8.606;2022-08-05T00:08:09;7.40;;;2.83;;
21955;SDS011;11142;49.930;8.606;2022-08-05T00:10:57;4.65;;;2.72;;
21955;SDS011;11142;49.930;8.606;2022-08-05T00:13:27;5.72;;;3.55;;
21955;SDS011;11142;49.930;8.606;2022-08-05T00:16:07;8.93;;;3.15;;
21955;SDS011;11142;49.930;8.606;2022-08-05T00:18:38;11.48;;;3.63;;
21955;SDS011;11142;49.930;8.606;2022-08-05T00:21:10;6.43;;;3.63;;
21955;SDS011;11142;49.930;8.606;2022-08-05T00:23:42;7.95;;;3.60;;
21955;SDS011;11142;49.930;8.606;2022-08-05T00:26:31;11.00;;;4.28;;
21955;SDS011;11142;49.930;8.606;2022-08-05T00:28:59;17.55;;;6.03;;
21955;SDS011;11142;49.930;8.606;2022-08-05T00:31:28;10.55;;;4.97;;
21955;SDS011;11142;49.930;8.606;2022-08-05T00:34:16;12.10;;;5.03;;
21955;SDS011;11142;49.930;8.606;2022-08-05T00:37:05;11.88;;;5.15;;
21955;SDS011;11142;49.930;8.606;2022-08-05T00:39:40;11.38;;;5.28;;
21955;SDS011;11142;49.930;8.606;2022-08-05T00:42:30;8.98;;;5.30;;
21955;SDS011;11142;49.930;8.606;2022-08-05T00:45:00;12.27;;;5.30;;
21955;SDS011;11142;49.930;8.606;2022-08-05T00:47:29;11.25;;;5.20;;
21955;SDS011;11142;49.930;8.606;2022-08-05T00:50:17;11.73;;;5.03;;
21955;SDS011;11142;49.930;8.606;2022-08-05T00:52:46;11.65;;;5.72;;
21955;SDS011;11142;49.930;8.606;2022-08-05T00:55:16;12.90;;;5.32;;
21955;SDS011;11142;49.930;8.606;2022-08-05T00:57:44;9.85;;;5.07;;
21955;SDS011;11142;49.930;8.606;2022-08-05T01:00:25;12.27;;;4.82;;
21955;SDS011;11142;49.930;8.606;2022-08-05T01:02:53;10.18;;;4.30;;
21955;SDS011;11142;49.930;8.606;2022-08-05T01:05:22;14.63;;;4.90;;
21955;SDS011;11142;49.930;8.606;2022-08-05T01:07:53;11.10;;;4.35;;
21955;SDS011;11142;49.930;8.606;2022-08-05T01:10:43;8.05;;;3.65;;
21955;SDS011;11142;49.930;8.606;2022-08-05T01:13:22;8.23;;;3.67;;
21955;SDS011;11142;49.930;8.606;2022-08-05T01:16:16;8.65;;;3.90;;
21955;SDS011;11142;49.930;8.606;2022-08-05T01:18:53;8.60;;;4.03;;
21955;SDS011;11142;49.930;8.606;2022-08-05T01:21:31;7.85;;;3.63;;
21955;SDS011;11142;49.930;8.606;2022-08-05T01:24:22;7.45;;;3.53;;
21955;SDS011;11142;49.930;8.606;2022-08-05T01:27:08;5.40;;;3.83;;
21955;SDS011;11142;49.930;8.606;2022-08-05T01:29:51;7.00;;;3.53;;
21955;SDS011;11142;49.930;8.606;2022-08-05T01:32:24;13.23;;;3.33;;
21955;SDS011;11142;49.930;8.606;2022-08-05T01:34:56;8.90;;;3.83;;
21955;SDS011;11142;49.930;8.606;2022-08-05T01:37:28;7.25;;;3.22;;
21955;SDS011;11142;49.930;8.606;2022-08-05T01:40:02;8.18;;;3.30;;
21955;SDS011;11142;49.930;8.606;2022-08-05T01:42:33;9.07;;;3.75;;
21955;SDS011;11142;49.930;8.606;2022-08-05T01:45:08;6.53;;;3.50;;
21955;SDS011;11142;49.930;8.606;2022-08-05T01:47:41;7.72;;;3.17;;
21955;SDS011;11142;49.930;8.606;2022-08-05T01:50:14;9.02;;;3.25;;
21955;SDS011;11142;49.930;8.606;2022-08-05T01:52:55;9.02;;;3.03;;
21955;SDS011;11142;49.930;8.606;2022-08-05T01:55:27;9.27;;;3.08;;
21955;SDS011;11142;49.930;8.606;2022-08-05T01:58:03;11.18;;;3.10;;
21955;SDS011;11142;49.930;8.606;2022-08-05T02:00:43;7.35;;;2.90;;
21955;SDS011;11142;49.930;8.606;2022-08-05T02:03:15;5.53;;;3.17;;
21955;SDS011;11142;49.930;8.606;2022-08-05T02:05:57;9.18;;;3.80;;
21955;SDS011;11142;49.930;8.606;2022-08-05T02:08:46;6.93;;;3.00;;
21955;SDS011;11142;49.930;8.606;2022-08-05T02:11:24;4.50;;;3.00;;
21955;SDS011;11142;49.930;8.606;2022-08-05T02:13:59;7.57;;;3.67;;
21955;SDS011;11142;49.930;8.606;2022-08-05T02:16:33;9.70;;;3.30;;
21955;SDS011;11142;49.930;8.606;2022-08-05T02:19:10;7.47;;;3.30;;
21955;SDS011;11142;49.930;8.606;2022-08-05T02:21:50;5.82;;;3.20;;
21955;SDS011;11142;49.930;8.606;2022-08-05T02:24:21;7.70;;;3.25;;
21955;SDS011;11142;49.930;8.606;2022-08-05T02:26:55;6.40;;;3.15;;
21955;SDS011;11142;49.930;8.606;2022-08-05T02:29:36;6.28;;;3.45;;
21955;SDS011;11142;49.930;8.606;2022-08-05T02:32:27;11.32;;;3.67;;
21955;SDS011;11142;49.930;8.606;2022-08-05T02:35:00;6.40;;;3.45;;
21955;SDS011;11142;49.930;8.606;2022-08-05T02:37:40;8.77;;;3.28;;
21955;SDS011;11142;49.930;8.606;2022-08-05T02:40:19;7.13;;;3.80;;
21955;SDS011;11142;49.930;8.606;2022-08-05T02:42:51;6.43;;;3.53;;
21955;SDS011;11142;49.930;8.606;2022-08-05T02:45:23;9.85;;;3.42;;
21955;SDS011;11142;49.930;8.606;2022-08-05T02:48:15;5.97;;;3.35;;
21955;SDS011;11142;49.930;8.606;2022-08-05T02:50:54;8.05;;;3.40;;
21955;SDS011;11142;49.930;8.606;2022-08-05T02:53:25;11.07;;;3.50;;
21955;SDS011;11142;49.930;8.606;2022-08-05T02:56:05;5.80;;;3.65;;
21955;SDS011;11142;49.930;8.606;2022-08-05T02:58:44;9.35;;;3.70;;
21955;SDS011;11142;49.930;8.606;2022-08-05T03:01:19;11.27;;;3.97;;
21955;SDS011;11142;49.930;8.606;2022-08-05T03:03:55;10.38;;;4.25;;
21955;SDS011;11142;49.930;8.606;2022-08-05T03:06:29;6.57;;;3.25;;
21955;SDS011;11142;49.930;8.606;2022-08-05T03:09:18;7.90;;;3.85;;
21955;SDS011;11142;49.930;8.606;2022-08-05T03:12:03;9.02;;;4.32;;
21955;SDS011;11142;49.930;8.606;2022-08-05T03:14:33;7.88;;;4.25;;
21955;SDS011;11142;49.930;8.606;2022-08-05T03:17:11;11.00;;;4.72;;
21955;SDS011;11142;49.930;8.606;2022-08-05T03:19:41;8.57;;;4.75;;
21955;SDS011;11142;49.930;8.606;2022-08-05T03:22:11;9.00;;;4.60;;
21955;SDS011;11142;49.930;8.606;2022-08-05T03:24:44;10.38;;;4.65;;
21955;SDS011;11142;49.930;8.606;2022-08-05T03:27:17;14.15;;;5.95;;
21955;SDS011;11142;49.930;8.606;2022-08-05T03:29:55;11.98;;;5.57;;
21955;SDS011;11142;49.930;8.606;2022-08-05T03:32:34;10.02;;;5.50;;
21955;SDS011;11142;49.930;8.606;2022-08-05T03:35:05;12.57;;;5.90;;
21955;SDS011;11142;49.930;8.606;2022-08-05T03:37:34;12.23;;;6.22;;
21955;SDS011;11142;49.930;8.606;2022-08-05T03:40:12;11.82;;;7.13;;
21955;SDS011;11142;49.930;8.606;2022-08-05T03:42:57;16.75;;;7.35;;
21955;SDS011;11142;49.930;8.606;2022-08-05T03:45:45;10.45;;;7.45;;
21955;SDS011;11142;49.930;8.606;2022-08-05T03:48:24;11.27;;;8.18;;
21955;SDS011;11142;49.930;8.606;2022-08-05T03:50:56;15.32;;;8.15;;
21955;SDS011;11142;49.930;8.606;2022-08-05T03:53:51;18.55;;;8.95;;
21955;SDS011;11142;49.930;8.606;2022-08-05T03:56:45;11.40;;;8.13;;
21955;SDS011;11142;49.930;8.606;2022-08-05T03:59:16;15.38;;;8.88;;
21955;SDS011;11142;49.930;8.606;2022-08-05T04:01:50;12.73;;;7.72;;
21955;SDS011;11142;49.930;8.606;2022-08-05T04:04:24;14.57;;;8.95;;
21955;SDS011;11142;49.930;8.606;2022-08-05T04:06:55;12.10;;;8.40;;
21955;SDS011;11142;49.930;8.606;2022-08-05T04:09:25;10.23;;;6.80;;
21955;SDS011;11142;49.930;8.606;2022-08-05T04:12:02;11.48;;;7.38;;
21955;SDS011;11142;49.930;8.606;2022-08-05T04:14:49;14.70;;;6.55;;
21955;SDS011;11142;49.930;8.606;2022-08-05T04:17:17;11.60;;;6.57;;
21955;SDS011;11142;49.930;8.606;2022-08-05T04:19:46;15.60;;;7.38;;
21955;SDS011;11142;49.930;8.606;2022-08-05T04:22:21;12.15;;;7.30;;
21955;SDS011;11142;49.930;8.606;2022-08-05T04:24:52;14.55;;;7.60;;
21955;SDS011;11142;49.930;8.606;2022-08-05T04:27:20;9.93;;;7.40;;
21955;SDS011;11142;49.930;8.606;2022-08-05T04:30:09;18.98;;;7.53;;
21955;SDS011;11142;49.930;8.606;2022-08-05T04:32:37;13.45;;;8.43;;
21955;SDS011;11142;49.930;8.606;2022-08-05T04:35:07;11.20;;;7.93;;
21955;SDS011;11142;49.930;8.606;2022-08-05T04:37:46;17.70;;;9.35;;
21955;SDS011;11142;49.930;8.606;2022-08-05T04:40:32;11.38;;;8.02;;
21955;SDS011;11142;49.930;8.606;2022-08-05T04:43:01;14.98;;;7.93;;
21955;SDS011;11142;49.930;8.606;2022-08-05T04:45:36;12.82;;;9.32;;
21955;SDS011;11142;49.930;8.606;2022-08-05T04:48:20;13.15;;;8.13;;
21955;SDS011;11142;49.930;8.606;2022-08-05T04:50:53;17.35;;;9.07;;
21955;SDS011;11142;49.930;8.606;2022-08-05T04:53:36;13.77;;;9.43;;
21955;SDS011;11142;49.930;8.606;2022-08-05T04:56:05;13.73;;;9.05;;
21955;SDS011;11142;49.930;8.606;2022-08-05T04:58:54;29.88;;;10.18;;
21955;SDS011;11142;49.930;8.606;2022-08-05T05:01:24;14.63;;;10.35;;
21955;SDS011;11142;49.930;8.606;2022-08-05T05:04:11;16.73;;;10.32;;
21955;SDS011;11142;49.930;8.606;2022-08-05T05:06:40;13.85;;;10.00;;
21955;SDS011;11142;49.930;8.606;2022-08-05T05:09:20;14.27;;;10.43;;
21955;SDS011;11142;49.930;8.606;2022-08-05T05:11:49;15.57;;;10.88;;
21955;SDS011;11142;49.930;8.606;2022-08-05T05:14:22;19.67;;;11.07;;
21955;SDS011;11142;49.930;8.606;2022-08-05T05:16:57;15.13;;;10.95;;
21955;SDS011;11142;49.930;8.606;2022-08-05T05:19:26;17.60;;;11.40;;
21955;SDS011;11142;49.930;8.606;2022-08-05T05:24:51;15.30;;;10.60;;
21955;SDS011;11142;49.930;8.606;2022-08-05T05:27:25;13.25;;;9.82;;
21955;SDS011;11142;49.930;8.606;2022-08-05T05:30:11;19.90;;;8.93;;
21955;SDS011;11142;49.930;8.606;2022-08-05T05:32:57;13.45;;;8.65;;
21955;SDS011;11142;49.930;8.606;2022-08-05T05:35:42;14.35;;;8.50;;
21955;SDS011;11142;49.930;8.606;2022-08-05T05:38:11;15.95;;;8.40;;
21955;SDS011;11142;49.930;8.606;2022-08-05T05:40:41;26.27;;;9.43;;
21955;SDS011;11142;49.930;8.606;2022-08-05T05:43:16;13.38;;;8.35;;
21955;SDS011;11142;49.930;8.606;2022-08-05T05:46:04;21.58;;;8.20;;
21955;SDS011;11142;49.930;8.606;2022-08-05T05:48:43;15.02;;;8.35;;
21955;SDS011;11142;49.930;8.606;2022-08-05T05:51:17;14.18;;;7.82;;
21955;SDS011;11142;49.930;8.606;2022-08-05T05:53:46;13.93;;;8.20;;
21955;SDS011;11142;49.930;8.606;2022-08-05T05:56:26;10.43;;;7.22;;
21955;SDS011;11142;49.930;8.606;2022-08-05T05:59:00;12.88;;;8.13;;
21955;SDS011;11142;49.930;8.606;2022-08-05T06:01:31;9.57;;;8.20;;
21955;SDS011;11142;49.930;8.606;2022-08-05T06:04:04;11.57;;;6.90;;
21955;SDS011;11142;49.930;8.606;2022-08-05T06:06:38;11.27;;;6.78;;
21955;SDS011;11142;49.930;8.606;2022-08-05T06:09:08;8.98;;;6.18;;
21955;SDS011;11142;49.930;8.606;2022-08-05T06:11:53;10.20;;;5.43;;
21955;SDS011;11142;49.930;8.606;2022-08-05T06:14:28;10.63;;;5.70;;
21955;SDS011;11142;49.930;8.606;2022-08-05T06:16:56;9.30;;;5.40;;
21955;SDS011;11142;49.930;8.606;2022-08-05T06:19:45;11.18;;;5.47;;
21955;SDS011;11142;49.930;8.606;2022-08-05T06:22:25;9.73;;;5.90;;
21955;SDS011;11142;49.930;8.606;2022-08-05T06:24:58;7.70;;;5.20;;
21955;SDS011;11142;49.930;8.606;2022-08-05T06:27:48;9.07;;;4.93;;
21955;SDS011;11142;49.930;8.606;2022-08-05T06:30:36;10.02;;;5.25;;
21955;SDS011;11142;49.930;8.606;2022-08-05T06:33:06;6.70;;;4.88;;
21955;SDS011;11142;49.930;8.606;2022-08-05T06:35:36;9.68;;;4.72;;
21955;SDS011;11142;49.930;8.606;2022-08-05T06:38:24;6.72;;;5.20;;
21955;SDS011;11142;49.930;8.606;2022-08-05T06:41:02;11.60;;;5.38;;
21955;SDS011;11142;49.930;8.606;2022-08-05T06:43:34;7.70;;;4.70;;
21955;SDS011;11142;49.930;8.606;2022-08-05T06:46:22;10.15;;;4.68;;
21955;SDS011;11142;49.930;8.606;2022-08-05T06:51:28;10.55;;;5.15;;
21955;SDS011;11142;49.930;8.606;2022-08-05T06:53:57;14.30;;;4.82;;
21955;SDS011;11142;49.930;8.606;2022-08-05T06:56:25;7.05;;;4.30;;
21955;SDS011;11142;49.930;8.606;2022-08-05T06:58:54;9.23;;;5.38;;
21955;SDS011;11142;49.930;8.606;2022-08-05T07:01:23;7.78;;;5.15;;
21955;SDS011;11142;49.930;8.606;2022-08-05T07:03:58;12.10;;;5.93;;
21955;SDS011;11142;49.930;8.606;2022-08-05T07:06:28;8.05;;;5.47;;
21955;SDS011;11142;49.930;8.606;2022-08-05T07:08:57;12.82;;;6.03;;
21955;SDS011;11142;49.930;8.606;2022-08-05T07:11:29;12.90;;;7.13;;
21955;SDS011;11142;49.930;8.606;2022-08-05T07:14:04;14.02;;;6.55;;
21955;SDS011;11142;49.930;8.606;2022-08-05T07:16:56;10.80;;;7.18;;
21955;SDS011;11142;49.930;8.606;2022-08-05T07:19:47;13.07;;;7.13;;
21955;SDS011;11142;49.930;8.606;2022-08-05T07:22:38;10.48;;;7.68;;
21955;SDS011;11142;49.930;8.606;2022-08-05T07:25:07;10.80;;;6.78;;
21955;SDS011;11142;49.930;8.606;2022-08-05T07:27:56;8.50;;;6.35;;
21955;SDS011;11142;49.930;8.606;2022-08-05T07:30:35;11.00;;;6.97;;
21955;SDS011;11142;49.930;8.606;2022-08-05T07:33:06;15.05;;;7.93;;
21955;SDS011;11142;49.930;8.606;2022-08-05T07:35:42;11.05;;;6.60;;
21955;SDS011;11142;49.930;8.606;2022-08-05T07:38:31;11.20;;;7.95;;
21955;SDS011;11142;49.930;8.606;2022-08-05T07:41:10;11.45;;;7.07;;
21955;SDS011;11142;49.930;8.606;2022-08-05T07:43:59;8.88;;;6.80;;
21955;SDS011;11142;49.930;8.606;2022-08-05T07:46:30;10.60;;;7.18;;
21955;SDS011;11142;49.930;8.606;2022-08-05T07:48:59;10.45;;;7.00;;
21955;SDS011;11142;49.930;8.606;2022-08-05T07:51:32;8.27;;;6.53;;
21955;SDS011;11142;49.930;8.606;2022-08-05T07:54:13;9.52;;;6.45;;
21955;SDS011;11142;49.930;8.606;2022-08-05T07:56:44;9.93;;;6.03;;
21955;SDS011;11142;49.930;8.606;2022-08-05T07:59:32;13.13;;;6.82;;
21955;SDS011;11142;49.930;8.606;2022-08-05T08:02:08;11.48;;;6.50;;
21955;SDS011;11142;49.930;8.606;2022-08-05T08:04:43;8.05;;;5.78;;
21955;SDS011;11142;49.930;8.606;2022-08-05T08:07:14;10.02;;;5.35;;
21955;SDS011;11142;49.930;8.606;2022-08-05T08:09:47;9.73;;;5.70;;
21955;SDS011;11142;49.930;8.606;2022-08-05T08:12:18;8.02;;;5.60;;
21955;SDS011;11142;49.930;8.606;2022-08-05T08:15:05;11.70;;;5.68;;
21955;SDS011;11142;49.930;8.606;2022-08-05T08:17:43;8.30;;;5.15;;
21955;SDS011;11142;49.930;8.606;2022-08-05T08:20:18;7.38;;;5.20;;
21955;SDS011;11142;49.930;8.606;2022-08-05T08:23:08;10.82;;;4.68;;
21955;SDS011;11142;49.930;8.606;2022-08-05T08:25:56;7.32;;;5.22;;
21955;SDS011;11142;49.930;8.606;2022-08-05T08:28:28;11.63;;;5.30;;
21955;SDS011;11142;49.930;8.606;2022-08-05T08:31:07;6.72;;;4.82;;
21955;SDS011;11142;49.930;8.606;2022-08-05T08:33:44;6.45;;;4.75;;
21955;SDS011;11142;49.930;8.606;2022-08-05T08:36:18;8.20;;;5.20;;
21955;SDS011;11142;49.930;8.606;2022-08-05T08:39:05;9.40;;;4.72;;
21955;SDS011;11142;49.930;8.606;2022-08-05T08:41:41;9.48;;;5.13;;
21955;SDS011;11142;49.930;8.606;2022-08-05T08:44:19;9.57;;;4.80;;
21955;SDS011;11142;49.930;8.606;2022-08-05T08:47:09;6.28;;;4.97;;
21955;SDS011;11142;49.930;8.606;2022-08-05T08:50:02;10.57;;;4.95;;
21955;SDS011;11142;49.930;8.606;2022-08-05T08:52:51;9.07;;;5.32;;
21955;SDS011;11142;49.930;8.606;2022-08-05T08:55:23;13.88;;;5.10;;
21955;SDS011;11142;49.930;8.606;2022-08-05T08:58:12;8.63;;;4.90;;
21955;SDS011;11142;49.930;8.606;2022-08-05T09:00:42;12.05;;;4.95;;
21955;SDS011;11142;49.930;8.606;2022-08-05T09:03:11;14.80;;;4.18;;
21955;SDS011;11142;49.930;8.606;2022-08-05T09:05:47;7.05;;;4.00;;
21955;SDS011;11142;49.930;8.606;2022-08-05T09:08:35;7.05;;;3.67;;
21955;SDS011;11142;49.930;8.606;2022-08-05T09:11:06;5.15;;;3.50;;
21955;SDS011;11142;49.930;8.606;2022-08-05T09:13:40;6.82;;;3.63;;
21955;SDS011;11142;49.930;8.606;2022-08-05T09:16:29;4.07;;;3.17;;
21955;SDS011;11142;49.930;8.606;2022-08-05T09:18:58;5.22;;;3.05;;
21955;SDS011;11142;49.930;8.606;2022-08-05T09:21:33;6.22;;;3.28;;
21955;SDS011;11142;49.930;8.606;2022-08-05T09:24:22;9.27;;;3.67;;
21955;SDS011;11142;49.930;8.606;2022-08-05T09:26:50;6.35;;;3.53;;
21955;SDS011;11142;49.930;8.606;2022-08-05T09:29:36;5.70;;;3.20;;
21955;SDS011;11142;49.930;8.606;2022-08-05T09:32:13;4.25;;;3.28;;
21955;SDS011;11142;49.930;8.606;2022-08-05T09:35:08;5.35;;;3.28;;
21955;SDS011;11142;49.930;8.606;2022-08-05T09:37:54;5.53;;;2.90;;
21955;SDS011;11142;49.930;8.606;2022-08-05T09:40:44;4.13;;;3.15;;
21955;SDS011;11142;49.930;8.606;2022-08-05T09:43:26;5.38;;;3.35;;
21955;SDS011;11142;49.930;8.606;2022-08-05T09:46:06;6.22;;;3.05;;
21955;SDS011;11142;49.930;8.606;2022-08-05T09:48:54;4.03;;;3.25;;
21955;SDS011;11142;49.930;8.606;2022-08-05T09:51:43;5.00;;;3.30;;
21955;SDS011;11142;49.930;8.606;2022-08-05T09:54:17;5.70;;;3.38;;
21955;SDS011;11142;49.930;8.606;2022-08-05T09:56:57;4.53;;;2.88;;
21955;SDS011;11142;49.930;8.606;2022-08-05T09:59:46;4.10;;;3.20;;
21955;SDS011;11142;49.930;8.606;2022-08-05T10:02:16;3.38;;;2.92;;
21955;SDS011;11142;49.930;8.606;2022-08-05T10:05:02;5.10;;;3.22;;
21955;SDS011;11142;49.930;8.606;2022-08-05T10:07:46;6.32;;;3.35;;
21955;SDS011;11142;49.930;8.606;2022-08-05T10:10:46;4.70;;;3.22;;
21955;SDS011;11142;49.930;8.606;2022-08-05T10:13:27;7.45;;;3.30;;
21955;SDS011;11142;49.930;8.606;2022-08-05T10:18:55;4.97;;;3.20;;
21955;SDS011;11142;49.930;8.606;2022-08-05T10:21:24;6.90;;;3.80;;
21955;SDS011;11142;49.930;8.606;2022-08-05T10:24:00;3.63;;;3.30;;
21955;SDS011;11142;49.930;8.606;2022-08-05T10:26:38;6.28;;;3.50;;
21955;SDS011;11142;49.930;8.606;2022-08-05T10:29:17;4.80;;;3.17;;
21955;SDS011;11142;49.930;8.606;2022-08-05T10:32:07;3.45;;;2.95;;
21955;SDS011;11142;49.930;8.606;2022-08-05T10:34:55;3.50;;;3.10;;
21955;SDS011;11142;49.930;8.606;2022-08-05T10:37:27;5.13;;;3.20;;
21955;SDS011;11142;49.930;8.606;2022-08-05T10:40:14;5.18;;;2.90;;
21955;SDS011;11142;49.930;8.606;2022-08-05T10:45:27;5.25;;;2.95;;
21955;SDS011;11142;49.930;8.606;2022-08-05T10:51:07;4.88;;;3.05;;
21955;SDS011;11142;49.930;8.606;2022-08-05T10:53:51;2.83;;;2.40;;
21955;SDS011;11142;49.930;8.606;2022-08-05T10:56:21;4.10;;;3.17;;
21955;SDS011;11142;49.930;8.606;2022-08-05T10:59:03;3.20;;;2.80;;
21955;SDS011;11142;49.930;8.606;2022-08-05T11:02:05;3.67;;;2.75;;
21955;SDS011;11142;49.930;8.606;2022-08-05T11:04:54;4.93;;;2.90;;
21955;SDS011;11142;49.930;8.606;2022-08-05T11:07:22;4.68;;;2.70;;
21955;SDS011;11142;49.930;8.606;2022-08-05T11:10:19;6.63;;;3.30;;
21955;SDS011;11142;49.930;8.606;2022-08-05T11:12:53;4.40;;;2.83;;
21955;SDS011;11142;49.930;8.606;2022-08-05T11:15:24;4.63;;;2.92;;
21955;SDS011;11142;49.930;8.606;2022-08-05T11:18:25;5.28;;;2.65;;
21955;SDS011;11142;49.930;8.606;2022-08-05T11:20:58;5.03;;;3.22;;
21955;SDS011;11142;49.930;8.606;2022-08-05T11:23:35;4.28;;;3.15;;
21955;SDS011;11142;49.930;8.606;2022-08-05T11:26:30;4.53;;;3.25;;
21955;SDS011;11142;49.930;8.606;2022-08-05T11:28:59;3.75;;;3.13;;
21955;SDS011;11142;49.930;8.606;2022-08-05T11:31:42;3.38;;;3.00;;
21955;SDS011;11142;49.930;8.606;2022-08-05T11:34:39;3.78;;;3.00;;
21955;SDS011;11142;49.930;8.606;2022-08-05T11:43:52;3.15;;;2.55;;
21955;SDS011;11142;49.930;8.606;2022-08-05T11:49:02;3.40;;;2.72;;
21955;SDS011;11142;49.930;8.606;2022-08-05T11:51:36;4.95;;;2.95;;
21955;SDS011;11142;49.930;8.606;2022-08-05T11:54:20;4.30;;;2.78;;
21955;SDS011;11142;49.930;8.606;2022-08-05T11:57:00;3.72;;;2.90;;
21955;SDS011;11142;49.930;8.606;2022-08-05T11:59:49;6.00;;;2.80;;
21955;SDS011;11142;49.930;8.606;2022-08-05T12:02:23;4.32;;;2.80;;
21955;SDS011;11142;49.930;8.606;2022-08-05T12:05:00;4.90;;;2.90;;
21955;SDS011;11142;49.930;8.606;2022-08-05T12:07:33;6.35;;;2.40;;
21955;SDS011;11142;49.930;8.606;2022-08-05T12:10:24;5.10;;;3.00;;
21955;SDS011;11142;49.930;8.606;2022-08-05T12:13:11;4.85;;;3.10;;
21955;SDS011;11142;49.930;8.606;2022-08-05T12:15:42;4.03;;;2.72;;
21955;SDS011;11142;49.930;8.606;2022-08-05T12:18:18;3.53;;;2.85;;
21955;SDS011;11142;49.930;8.606;2022-08-05T12:21:09;3.28;;;2.85;;
21955;SDS011;11142;49.930;8.606;2022-08-05T12:23:37;3.25;;;2.95;;
21955;SDS011;11142;49.930;8.606;2022-08-05T12:26:08;4.93;;;3.08;;
21955;SDS011;11142;49.930;8.606;2022-08-05T12:28:36;4.25;;;3.38;;
21955;SDS011;11142;49.930;8.606;2022-08-05T12:31:05;9.32;;;3.30;;
21955;SDS011;11142;49.930;8.606;2022-08-05T12:33:33;4.00;;;2.95;;
21955;SDS011;11142;49.930;8.606;2022-08-05T12:36:04;3.92;;;3.22;;
21955;SDS011;11142;49.930;8.606;2022-08-05T12:38:37;3.60;;;3.10;;
21955;SDS011;11142;49.930;8.606;2022-08-05T12:41:07;4.80;;;2.97;;
21955;SDS011;11142;49.930;8.606;2022-08-05T12:43:52;4.50;;;3.42;;
21955;SDS011;11142;49.930;8.606;2022-08-05T12:46:22;6.07;;;3.30;;
21955;SDS011;11142;49.930;8.606;2022-08-05T12:48:59;4.38;;;3.33;;
21955;SDS011;11142;49.930;8.606;2022-08-05T12:51:42;7.35;;;4.20;;
21955;SDS011;11142;49.930;8.606;2022-08-05T12:54:33;4.55;;;3.30;;
21955;SDS011;11142;49.930;8.606;2022-08-05T12:57:03;4.57;;;3.28;;
21955;SDS011;11142;49.930;8.606;2022-08-05T12:59:41;4.15;;;3.50;;
21955;SDS011;11142;49.930;8.606;2022-08-05T13:02:34;7.50;;;3.60;;
21955;SDS011;11142;49.930;8.606;2022-08-05T13:05:05;7.93;;;3.75;;
21955;SDS011;11142;49.930;8.606;2022-08-05T13:07:38;6.15;;;3.63;;
21955;SDS011;11142;49.930;8.606;2022-08-05T13:10:27;5.28;;;3.63;;
21955;SDS011;11142;49.930;8.606;2022-08-05T13:12:58;7.43;;;3.20;;
21955;SDS011;11142;49.930;8.606;2022-08-05T13:15:28;13.70;;;3.50;;
21955;SDS011;11142;49.930;8.606;2022-08-05T13:18:15;4.82;;;3.70;;
21955;SDS011;11142;49.930;8.606;2022-08-05T13:20:45;7.03;;;3.40;;
21955;SDS011;11142;49.930;8.606;2022-08-05T13:23:15;8.90;;;3.72;;
21955;SDS011;11142;49.930;8.606;2022-08-05T13:25:50;4.40;;;3.55;;
21955;SDS011;11142;49.930;8.606;2022-08-05T13:28:26;4.15;;;3.38;;
21955;SDS011;11142;49.930;8.606;2022-08-05T13:30:57;7.93;;;4.05;;
21955;SDS011;11142;49.930;8.606;2022-08-05T13:33:36;6.07;;;3.88;;
21955;SDS011;11142;49.930;8.606;2022-08-05T13:36:24;7.47;;;4.13;;
21955;SDS011;11142;49.930;8.606;2022-08-05T13:38:54;10.15;;;4.30;;
21955;SDS011;11142;49.930;8.606;2022-08-05T13:41:24;7.60;;;4.50;;
21955;SDS011;11142;49.930;8.606;2022-08-05T13:44:03;6.88;;;4.30;;
21955;SDS011;11142;49.930;8.606;2022-08-05T13:46:31;5.35;;;4.40;;
21955;SDS011;11142;49.930;8.606;2022-08-05T13:49:19;8.27;;;4.80;;
21955;SDS011;11142;49.930;8.606;2022-08-05T13:51:47;7.55;;;4.55;;
21955;SDS011;11142;49.930;8.606;2022-08-05T13:54:19;7.23;;;4.87;;
21955;SDS011;11142;49.930;8.606;2022-08-05T13:56:52;5.95;;;5.00;;
21955;SDS011;11142;49.930;8.606;2022-08-05T13:59:20;7.18;;;5.20;;
21955;SDS011;11142;49.930;8.606;2022-08-05T14:01:52;6.27;;;5.10;;
21955;SDS011;11142;49.930;8.606;2022-08-05T14:04:28;7.40;;;4.82;;
21955;SDS011;11142;49.930;8.606;2022-08-05T14:07:17;6.82;;;5.38;;
21955;SDS011;11142;49.930;8.606;2022-08-05T14:10:07;6.07;;;5.22;;
21955;SDS011;11142;49.930;8.606;2022-08-05T14:12:38;7.00;;;5.25;;
21955;SDS011;11142;49.930;8.606;2022-08-05T14:15:14;7.28;;;5.15;;
21955;SDS011;11142;49.930;8.606;2022-08-05T14:18:03;6.50;;;5.45;;
21955;SDS011;11142;49.930;8.606;2022-08-05T14:20:40;10.38;;;6.18;;
21955;SDS011;11142;49.930;8.606;2022-08-05T14:23:13;8.13;;;6.68;;
21955;SDS011;11142;49.930;8.606;2022-08-05T14:25:51;7.65;;;6.20;;
21955;SDS011;11142;49.930;8.606;2022-08-05T14:28:28;7.93;;;6.18;;
21955;SDS011;11142;49.930;8.606;2022-08-05T14:30:58;10.85;;;7.07;;
21955;SDS011;11142;49.930;8.606;2022-08-05T14:33:27;11.93;;;7.63;;
21955;SDS011;11142;49.930;8.606;2022-08-05T14:36:17;11.60;;;7.65;;
21955;SDS011;11142;49.930;8.606;2022-08-05T14:38:47;8.55;;;7.20;;
21955;SDS011;11142;49.930;8.606;2022-08-05T14:41:16;9.80;;;7.45;;
21955;SDS011;11142;49.930;8.606;2022-08-05T14:43:46;11.73;;;8.48;;
21955;SDS011;11142;49.930;8.606;2022-08-05T14:46:31;10.90;;;8.30;;
21955;SDS011;11142;49.930;8.606;2022-08-05T14:49:01;14.27;;;8.98;;
21955;SDS011;11142;49.930;8.606;2022-08-05T14:51:33;11.45;;;7.97;;
21955;SDS011;11142;49.930;8.606;2022-08-05T14:54:03;13.65;;;10.23;;
21955;SDS011;11142;49.930;8.606;2022-08-05T14:56:51;15.10;;;11.55;;
21955;SDS011;11142;49.930;8.606;2022-08-05T14:59:21;23.45;;;11.85;;
21955;SDS011;11142;49.930;8.606;2022-08-05T15:01:50;16.58;;;12.20;;
21955;SDS011;11142;49.930;8.606;2022-08-05T15:04:19;15.30;;;11.38;;
21955;SDS011;11142;49.930;8.606;2022-08-05T15:06:48;19.40;;;13.05;;
21955;SDS011;11142;49.930;8.606;2022-08-05T15:09:17;23.67;;;13.65;;
21955;SDS011;11142;49.930;8.606;2022-08-05T15:12:07;18.48;;;12.98;;
21955;SDS011;11142;49.930;8.606;2022-08-05T15:14:43;21.70;;;13.77;;
21955;SDS011;11142;49.930;8.606;2022-08-05T15:17:16;20.65;;;14.90;;
21955;SDS011;11142;49.930;8.606;2022-08-05T15:20:05;18.98;;;14.32;;
21955;SDS011;11142;49.930;8.606;2022-08-05T15:22:49;20.30;;;14.40;;
21955;SDS011;11142;49.930;8.606;2022-08-05T15:25:20;19.45;;;15.23;;
21955;SDS011;11142;49.930;8.606;2022-08-05T15:28:09;21.08;;;13.95;;
21955;SDS011;11142;49.930;8.606;2022-08-05T15:30:41;19.33;;;12.82;;
21955;SDS011;11142;49.930;8.606;2022-08-05T15:33:12;18.95;;;13.77;;
21955;SDS011;11142;49.930;8.606;2022-08-05T15:36:01;18.88;;;13.60;;
21955;SDS011;11142;49.930;8.606;2022-08-05T15:38:30;18.73;;;13.65;;
21955;SDS011;11142;49.930;8.606;2022-08-05T15:41:08;17.75;;;12.52;;
21955;SDS011;11142;49.930;8.606;2022-08-05T15:43:49;18.92;;;13.43;;
21955;SDS011;11142;49.930;8.606;2022-08-05T15:46:22;17.05;;;12.38;;
21955;SDS011;11142;49.930;8.606;2022-08-05T15:48:51;18.48;;;12.80;;
21955;SDS011;11142;49.930;8.606;2022-08-05T15:51:26;19.25;;;12.75;;
21955;SDS011;11142;49.930;8.606;2022-08-05T15:54:15;17.85;;;13.07;;
21955;SDS011;11142;49.930;8.606;2022-08-05T15:56:44;16.63;;;12.25;;
21955;SDS011;11142;49.930;8.606;2022-08-05T15:59:13;14.88;;;10.93;;
21955;SDS011;11142;49.930;8.606;2022-08-05T16:01:49;14.60;;;11.00;;
21955;SDS011;11142;49.930;8.606;2022-08-05T16:04:19;12.20;;;8.55;;